Time;durP1;ratioP1;P1;durP2;ratioP2;P2;SDS_P1;SDS_P2;PMS_P1;PMS_P2;Temp;Humidity;BMP_temperature;BMP_pressure;BME280_temperature;BME280_humidity;BME280_pressure;Samples;Min_cycle;Max_cycle;Signal;HPM_P1;HPM_P2
2024/02/01 00:00:38;;;;;;;;;;;;;;;;;;2215839;58;2230;-24
2024/02/01 00:03:08;;;;;;;;;;;;;;;;;;2211604;58;1770;-24
2024/02/01 00:05:38;;;;;;;;;;;;;;;;;;2213242;66;1286;-24
2024/02/01 00:08:08;;;;;;;;;;;;;;;;;;2218079;58;3081;-24
2024/02/01 00:10:39;;;;;;;;;;;;;;;;;;2212977;66;1419;-24
2024/02/01 00:13:09;;;;;;;;;;;;;;;;;;2213827;58;2023;-24
2024/02/01 00:15:39;;;;;;;;;;;;;;;;;;2213942;58;2807;-24
2024/02/01 00:18:10;;;;;;;;;;;;;;;;;;2217296;58;2788;-24
2024/02/01 00:20:41;;;;;;;;;;;;;;;;;;2213603;58;2590;-24
2024/02/01 00:23:11;;;;;;;;;;;;;;;;;;2214416;58;2726;-24
2024/02/01 00:25:42;;;;;;;;;;;;;;;;;;2212885;58;2009;-24
2024/02/01 00:28:12;;;;;;;;;;;;;;;;;;2215553;58;3069;-24
2024/02/01 00:30:42;;;;;;;;;;;;;;;;;;2215721;58;2018;-24
2024/02/01 00:33:12;;;;;;;;;;;;;;;;;;2216479;58;2985;-24
2024/02/01 00:35:43;;;;;;;;;;;;;;;;;;2216427;58;2231;-24
2024/02/01 00:38:13;;;;;;;;;;;;;;;;;;2214489;58;2004;-24
2024/02/01 00:40:43;;;;;;;;;;;;;;;;;;2212871;58;1774;-24
2024/02/01 00:43:14;;;;;;;;;;;;;;;;;;2213497;58;4080;-24
2024/02/01 00:45:44;;;;;;;;;;;;;;;;;;2215546;58;1736;-24
2024/02/01 00:48:16;;;;;;;;;;;;;;;;;;2212415;58;1297;-25
2024/02/01 00:50:46;;;;;;;;;;;;;;;;;;2215507;58;1803;-24
2024/02/01 00:53:17;;;;;;;;;;;;;;;;;;2216135;58;1973;-24
2024/02/01 00:55:47;;;;;;;;;;;;;;;;;;2215509;58;1510;-24
2024/02/01 00:58:17;;;;;;;;;;;;;;;;;;2217032;59;1919;-24
2024/02/01 01:00:47;;;;;;;;;;;;;;;;;;2218019;58;1799;-24
2024/02/01 01:03:18;;;;;;;;;;;;;;;;;;2212768;58;2204;-24
2024/02/01 01:05:49;;;;;;;;;;;;;;;;;;2216731;58;1757;-24
2024/02/01 01:08:19;;;;;;;;;;;;;;;;;;2213455;58;1737;-25
2024/02/01 01:10:51;;;;;;;;;;;;;;;;;;2213414;58;2400;-24
2024/02/01 01:13:21;;;;;;;;;;;;;;;;;;2218491;58;2340;-24
2024/02/01 01:15:52;;;;;;;;;;;;;;;;;;2214992;59;1537;-24
2024/02/01 01:18:22;;;;;;;;;;;;;;;;;;2212306;58;2745;-24
2024/02/01 01:20:52;;;;;;;;;;;;;;;;;;2217231;58;1954;-24
2024/02/01 01:23:22;;;;;;;;;;;;;;;;;;2213956;58;2910;-24
2024/02/01 01:25:53;;;;;;;;;;;;;;;;;;2213831;58;1920;-25
2024/02/01 01:28:23;;;;;;;;;;;;;;;;;;2213886;58;1822;-24
2024/02/01 01:30:53;;;;;;;;;;;;;;;;;;2219131;66;1127;-24
2024/02/01 01:33:23;;;;;;;;;;;;;;;;;;2216322;58;1794;-24
2024/02/01 01:35:54;;;;;;;;;;;;;;;;;;2217095;58;1132;-24
2024/02/01 01:38:24;;;;;;;;;;;;;;;;;;2216191;58;4092;-24
2024/02/01 01:40:55;;;;;;;;;;;;;;;;;;2213900;58;1517;-24
2024/02/01 01:43:25;;;;;;;;;;;;;;;;;;2215871;58;1225;-24
2024/02/01 01:45:58;;;;;;;;;;;;;;;;;;2216392;58;1663;-24
2024/02/01 01:48:29;;;;;;;;;;;;;;;;;;2215570;58;1311;-24
2024/02/01 01:51:00;;;;;;;;;;;;;;;;;;2216975;58;1847;-24
2024/02/01 01:53:31;;;;;;;;;;;;;;;;;;2217115;58;2135;-24
2024/02/01 01:56:01;;;;;;;;;;;;;;;;;;2216671;58;2556;-24
2024/02/01 01:58:33;;;;;;;;;;;;;;;;;;2215784;58;1944;-24
2024/02/01 02:01:04;;;;;;;;;;;;;;;;;;2216718;58;1679;-24
2024/02/01 02:03:36;;;;;;;;;;;;;;;;;;2215198;58;2471;-24
2024/02/01 02:06:06;;;;;;;;;;;;;;;;;;2216611;58;1315;-24
2024/02/01 02:08:36;;;;;;;;;;;;;;;;;;2217700;58;2144;-24
2024/02/01 02:11:07;;;;;;;;;;;;;;;;;;2218283;66;1894;-24
2024/02/01 02:16:13;;;;;;;;;;;;;;;;;;2210033;58;1931;-21
2024/02/01 02:18:44;;;;;;;;;;;;;;;;;;2212316;58;2052;-21
2024/02/01 02:21:16;;;;;;;;;;;;;;;;;;2212506;58;2475;-20
2024/02/01 02:23:49;;;;;;;;;;;;;;;;;;2212230;58;2340;-20
2024/02/01 02:26:19;;;;;;;;;;;;;;;;;;2204878;59;2710;-20
2024/02/01 02:28:50;;;;;;;;;;;;;;;;;;2207462;59;2540;-20
2024/02/01 02:31:20;;;;;;;;;;;;;;;;;;2207021;58;2006;-20
2024/02/01 02:33:50;;;;;;;;;;;;;;;;;;2206857;59;2467;-20
2024/02/01 02:36:20;;;;;;;;;;;;;;;;;;2206999;59;2470;-21
2024/02/01 02:38:51;;;;;;;;;;;;;;;;;;2208535;62;1954;-20
2024/02/01 02:41:21;;;;;;;;;;;;;;;;;;2207636;59;2245;-20
2024/02/01 02:43:52;;;;;;;;;;;;;;;;;;2203248;59;2545;-20
2024/02/01 02:46:24;;;;;;;;;;;;;;;;;;2207434;66;1767;-20
2024/02/01 02:48:54;;;;;;;;;;;;;;;;;;2208067;58;1820;-20
2024/02/01 02:51:24;;;;;;;;;;;;;;;;;;2207060;59;1895;-20
2024/02/01 02:53:55;;;;;;;;;;;;;;;;;;2207067;66;2426;-20
2024/02/01 02:56:25;;;;;;;;;;;;;;;;;;2207834;66;1992;-20
2024/02/01 02:58:55;;;;;;;;;;;;;;;;;;2207832;59;2248;-20
2024/02/01 03:01:25;;;;;;;;;;;;;;;;;;2205423;59;2177;-20
2024/02/01 03:03:56;;;;;;;;;;;;;;;;;;2208818;59;1800;-20
2024/02/01 03:06:27;;;;;;;;;;;;;;;;;;2204420;66;1790;-20
2024/02/01 03:08:57;;;;;;;;;;;;;;;;;;2208213;58;2582;-20
2024/02/01 03:11:28;;;;;;;;;;;;;;;;;;2206998;59;3166;-20
2024/02/01 03:13:58;;;;;;;;;;;;;;;;;;2206784;59;1732;-20
2024/02/01 03:16:28;;;;;;;;;;;;;;;;;;2204013;59;2528;-20
2024/02/01 03:18:58;;;;;;;;;;;;;;;;;;2207480;59;2963;-20
2024/02/01 03:21:30;;;;;;;;;;;;;;;;;;2207213;59;1929;-20
2024/02/01 03:24:02;;;;;;;;;;;;;;;;;;2207201;66;1360;-20
2024/02/01 03:26:35;;;;;;;;;;;;;;;;;;2207578;58;1894;-20
2024/02/01 03:29:05;;;;;;;;;;;;;;;;;;2207598;59;1767;-20
2024/02/01 03:31:35;;;;;;;;;;;;;;;;;;2203495;59;2439;-20
2024/02/01 03:34:10;;;;;;;;;;;;;;;;;;2207932;66;2100;-20
2024/02/01 03:36:40;;;;;;;;;;;;;;;;;;2206851;59;2033;-20
2024/02/01 03:39:22;;;;;;;;;;;;;;;;;;2207748;66;1999;-20
2024/02/01 03:41:54;;;;;;;;;;;;;;;;;;2207847;59;1619;-20
2024/02/01 03:44:24;;;;;;;;;;;;;;;;;;2206714;59;1696;-20
2024/02/01 03:46:55;;;;;;;;;;;;;;;;;;2208266;59;1596;-20
2024/02/01 03:49:25;;;;;;;;;;;;;;;;;;2207659;58;1666;-20
2024/02/01 03:51:55;;;;;;;;;;;;;;;;;;2206975;66;1566;-20
2024/02/01 03:54:25;;;;;;;;;;;;;;;;;;2206444;59;3664;-21
2024/02/01 03:56:56;;;;;;;;;;;;;;;;;;2204622;67;1690;-20
2024/02/01 03:59:26;;;;;;;;;;;;;;;;;;2207291;66;1909;-20
2024/02/01 04:02:03;;;;;;;;;;;;;;;;;;2207575;59;1265;-20
2024/02/01 04:04:34;;;;;;;;;;;;;;;;;;2207466;59;2440;-20
2024/02/01 04:07:04;;;;;;;;;;;;;;;;;;2207720;59;1513;-20
2024/02/01 04:09:34;;;;;;;;;;;;;;;;;;2206522;66;1263;-20
2024/02/01 04:12:04;;;;;;;;;;;;;;;;;;2207342;59;2040;-20
2024/02/01 04:14:35;;;;;;;;;;;;;;;;;;2201934;59;1738;-20
2024/02/01 04:17:05;;;;;;;;;;;;;;;;;;2207458;58;1880;-20
2024/02/01 04:19:35;;;;;;;;;;;;;;;;;;2207190;59;1944;-20
2024/02/01 04:22:06;;;;;;;;;;;;;;;;;;2206610;59;1938;-20
2024/02/01 04:24:36;;;;;;;;;;;;;;;;;;2203696;58;1818;-20
2024/02/01 04:27:06;;;;;;;;;;;;;;;;;;2207755;66;2173;-20
2024/02/01 04:29:38;;;;;;;;;;;;;;;;;;2204318;59;1791;-20
2024/02/01 04:32:09;;;;;;;;;;;;;;;;;;2207047;59;1939;-20
2024/02/01 04:34:39;;;;;;;;;;;;;;;;;;2206496;59;1878;-20
2024/02/01 04:37:12;;;;;;;;;;;;;;;;;;2207241;67;1750;-20
2024/02/01 04:39:42;;;;;;;;;;;;;;;;;;2204258;66;1963;-20
2024/02/01 04:42:15;;;;;;;;;;;;;;;;;;2206927;59;1760;-20
2024/02/01 04:44:46;;;;;;;;;;;;;;;;;;2207010;66;1407;-20
2024/02/01 04:47:17;;;;;;;;;;;;;;;;;;2207032;66;1346;-20
2024/02/01 04:49:47;;;;;;;;;;;;;;;;;;2207053;59;1786;-20
2024/02/01 04:52:17;;;;;;;;;;;;;;;;;;2207325;59;1842;-20
2024/02/01 04:54:47;;;;;;;;;;;;;;;;;;2207756;66;1624;-21
2024/02/01 04:57:18;;;;;;;;;;;;;;;;;;2206726;66;1568;-20
2024/02/01 04:59:48;;;;;;;;;;;;;;;;;;2207449;67;1988;-20
2024/02/01 05:02:20;;;;;;;;;;;;;;;;;;2203315;59;1363;-20
2024/02/01 05:04:51;;;;;;;;;;;;;;;;;;2206670;59;2505;-20
2024/02/01 05:07:21;;;;;;;;;;;;;;;;;;2206313;59;2513;-20
2024/02/01 05:09:51;;;;;;;;;;;;;;;;;;2207082;59;1820;-20
2024/02/01 05:12:22;;;;;;;;;;;;;;;;;;2206968;59;2752;-20
2024/02/01 05:14:52;;;;;;;;;;;;;;;;;;2206810;59;1652;-20
2024/02/01 05:17:22;;;;;;;;;;;;;;;;;;2203877;59;1709;-20
2024/02/01 05:19:53;;;;;;;;;;;;;;;;;;2206729;59;2013;-20
2024/02/01 05:22:23;;;;;;;;;;;;;;;;;;2206455;59;3074;-20
2024/02/01 05:24:54;;;;;;;;;;;;;;;;;;2207088;58;1804;-20
2024/02/01 05:27:24;;;;;;;;;;;;;;;;;;2203395;59;1946;-20
2024/02/01 05:29:54;;;;;;;;;;;;;;;;;;2204047;59;1955;-20
2024/02/01 05:32:25;;;;;;;;;;;;;;;;;;2206992;66;1511;-20
2024/02/01 05:34:55;;;;;;;;;;;;;;;;;;2204162;67;1435;-20
2024/02/01 05:37:25;;;;;;;;;;;;;;;;;;2203242;59;1851;-20
2024/02/01 05:39:55;;;;;;;;;;;;;;;;;;2207350;59;2249;-20
2024/02/01 05:42:26;;;;;;;;;;;;;;;;;;2204131;66;1913;-20
2024/02/01 05:44:56;;;;;;;;;;;;;;;;;;2203171;59;2311;-20
2024/02/01 05:47:26;;;;;;;;;;;;;;;;;;2206733;59;1700;-20
2024/02/01 05:49:56;;;;;;;;;;;;;;;;;;2206600;59;1608;-20
2024/02/01 05:52:27;;;;;;;;;;;;;;;;;;2206406;59;2059;-20
2024/02/01 05:54:58;;;;;;;;;;;;;;;;;;2206843;59;1635;-20
2024/02/01 05:57:28;;;;;;;;;;;;;;;;;;2206045;59;1693;-20
2024/02/01 05:59:59;;;;;;;;;;;;;;;;;;2208344;66;1938;-20
2024/02/01 06:02:29;;;;;;;;;;;;;;;;;;2202384;59;1695;-20
2024/02/01 06:05:00;;;;;;;;;;;;;;;;;;2207838;59;1873;-20
2024/02/01 06:07:30;;;;;;;;;;;;;;;;;;2203218;59;1962;-20
2024/02/01 06:10:00;;;;;;;;;;;;;;;;;;2207025;66;1294;-20
2024/02/01 06:12:30;;;;;;;;;;;;;;;;;;2205826;59;2244;-20
2024/02/01 06:15:01;;;;;;;;;;;;;;;;;;2207371;59;2171;-20
2024/02/01 06:17:31;;;;;;;;;;;;;;;;;;2207128;58;2052;-20
2024/02/01 06:20:01;;;;;;;;;;;;;;;;;;2208474;66;1992;-21
2024/02/01 06:22:31;;;;;;;;;;;;;;;;;;2210725;66;1653;-21
2024/02/01 06:25:03;;;;;;;;;;;;;;;;;;2210528;59;2131;-21
2024/02/01 06:27:33;;;;;;;;;;;;;;;;;;2209531;59;2085;-21
2024/02/01 06:30:04;;;;;;;;;;;;;;;;;;2210340;59;2644;-21
2024/02/01 06:32:34;;;;;;;;;;;;;;;;;;2205865;59;2465;-21
2024/02/01 06:35:12;;;;;;;;;;;;;;;;;;2203502;59;2565;-21
2024/02/01 06:37:45;;;;;;;;;;;;;;;;;;2205243;59;2490;-21
2024/02/01 06:43:27;;;;;;;;;;;;;;;;;;2202084;59;2000;-21
2024/02/01 06:46:08;;;;;;;;;;;;;;;;;;2204911;59;2855;-20
2024/02/01 06:48:43;;;;;;;;;;;;;;;;;;2204052;59;1483;-20
2024/02/01 06:51:25;;;;;;;;;;;;;;;;;;2207309;66;1519;-21
2024/02/01 06:54:05;;;;;;;;;;;;;;;;;;2205179;59;2141;-20
2024/02/01 06:56:48;;;;;;;;;;;;;;;;;;2206641;66;2178;-21
2024/02/01 06:59:31;;;;;;;;;;;;;;;;;;2207885;66;2178;-21
2024/02/01 07:02:14;;;;;;;;;;;;;;;;;;2208256;59;1485;-21
2024/02/01 07:04:51;;;;;;;;;;;;;;;;;;2203428;59;1559;-21
2024/02/01 07:07:29;;;;;;;;;;;;;;;;;;2204894;59;1616;-21
2024/02/01 07:10:08;;;;;;;;;;;;;;;;;;2206364;59;1859;-21
2024/02/01 07:13:06;;;;;;;;;;;;;;;;;;2206808;66;1518;-21
2024/02/01 07:15:38;;;;;;;;;;;;;;;;;;2205972;59;2083;-21
2024/02/01 07:18:14;;;;;;;;;;;;;;;;;;2203201;59;1944;-21
2024/02/01 07:20:51;;;;;;;;;;;;;;;;;;2208055;59;1517;-21
2024/02/01 07:59:48;;;;;;;;;;;;;;;;;;2207441;59;2051;-21
2024/02/01 08:02:34;;;;;;;;;;;;;;;;;;2203733;59;1426;-21
2024/02/01 08:07:54;;;;;;;;;;;;;;;;;;2207102;59;2710;-21
2024/02/01 08:10:24;;;;;;;;;;;;;;;;;;2203678;59;2215;-21
2024/02/01 08:13:13;;;;;;;;;;;;;;;;;;2206156;59;2138;-21
2024/02/01 08:15:44;;;;;;;;;;;;;;;;;;2206358;58;2234;-21
2024/02/01 08:18:14;;;;;;;;;;;;;;;;;;2207345;66;1933;-21
2024/02/01 08:20:44;;;;;;;;;;;;;;;;;;2207240;59;1677;-21
2024/02/01 08:23:21;;;;;;;;;;;;;;;;;;2207412;59;1563;-21
2024/02/01 08:25:51;;;;;;;;;;;;;;;;;;2206619;59;1781;-21
2024/02/01 08:28:32;;;;;;;;;;;;;;;;;;2207709;59;2002;-21
2024/02/01 08:31:02;;;;;;;;;;;;;;;;;;2206703;66;1571;-21
2024/02/01 08:33:33;;;;;;;;;;;;;;;;;;2208118;58;2174;-21
2024/02/01 08:36:03;;;;;;;;;;;;;;;;;;2206598;58;1825;-21
2024/02/01 08:38:34;;;;;;;;;;;;;;;;;;2208700;58;1941;-21
2024/02/01 08:41:04;;;;;;;;;;;;;;;;;;2203820;59;1565;-21
2024/02/01 08:43:38;;;;;;;;;;;;;;;;;;2207920;66;1587;-21
2024/02/01 08:46:08;;;;;;;;;;;;;;;;;;2206987;66;1721;-21
2024/02/01 08:48:39;;;;;;;;;;;;;;;;;;2207120;59;2052;-21
2024/02/01 08:51:09;;;;;;;;;;;;;;;;;;2207757;58;1720;-21
2024/02/01 08:53:43;;;;;;;;;;;;;;;;;;2206743;59;1464;-21
2024/02/01 08:56:13;;;;;;;;;;;;;;;;;;2205970;66;1343;-21
2024/02/01 08:58:43;;;;;;;;;;;;;;;;;;2207359;66;1942;-21
2024/02/01 09:01:24;;;;;;;;;;;;;;;;;;2208176;66;1570;-21
2024/02/01 09:03:54;;;;;;;;;;;;;;;;;;2206432;59;1757;-21
2024/02/01 09:06:25;;;;;;;;;;;;;;;;;;2207615;58;1640;-21
2024/02/01 09:08:55;;;;;;;;;;;;;;;;;;2206850;59;1586;-21
2024/02/01 09:11:28;;;;;;;;;;;;;;;;;;2206523;59;2411;-21
2024/02/01 09:14:00;;;;;;;;;;;;;;;;;;2206461;59;1814;-21
2024/02/01 09:16:30;;;;;;;;;;;;;;;;;;2202978;59;4125;-21
2024/02/01 09:19:01;;;;;;;;;;;;;;;;;;2205175;59;2677;-22
2024/02/01 09:21:31;;;;;;;;;;;;;;;;;;2203596;59;2255;-21
2024/02/01 09:24:02;;;;;;;;;;;;;;;;;;2199774;59;2098;-22
2024/02/01 09:26:32;;;;;;;;;;;;;;;;;;2205066;59;1897;-22
2024/02/01 09:29:11;;;;;;;;;;;;;;;;;;2207044;59;1426;-22
2024/02/01 09:31:41;;;;;;;;;;;;;;;;;;2203714;59;3053;-22
2024/02/01 09:34:14;;;;;;;;;;;;;;;;;;2206777;59;2263;-22
2024/02/01 09:36:44;;;;;;;;;;;;;;;;;;2205381;59;1702;-22
2024/02/01 09:39:16;;;;;;;;;;;;;;;;;;2200660;59;2449;-22
2024/02/01 09:41:47;;;;;;;;;;;;;;;;;;2205577;59;1891;-22
2024/02/01 09:44:17;;;;;;;;;;;;;;;;;;2207006;59;2210;-22
2024/02/01 09:46:47;;;;;;;;;;;;;;;;;;2206135;59;2877;-22
2024/02/01 09:49:17;;;;;;;;;;;;;;;;;;2207831;59;2276;-22
2024/02/01 09:51:48;;;;;;;;;;;;;;;;;;2207487;59;1618;-22
2024/02/01 09:54:18;;;;;;;;;;;;;;;;;;2202985;59;1540;-22
2024/02/01 09:56:49;;;;;;;;;;;;;;;;;;2206741;59;1861;-22
2024/02/01 09:59:19;;;;;;;;;;;;;;;;;;2203866;67;1947;-22
2024/02/01 10:01:49;;;;;;;;;;;;;;;;;;2206947;59;1684;-22
2024/02/01 10:04:20;;;;;;;;;;;;;;;;;;2206892;59;1956;-22
2024/02/01 10:06:50;;;;;;;;;;;;;;;;;;2203333;58;1572;-22
2024/02/01 10:09:25;;;;;;;;;;;;;;;;;;2201316;59;1859;-22
2024/02/01 10:11:55;;;;;;;;;;;;;;;;;;2206919;58;2312;-22
2024/02/01 10:14:35;;;;;;;;;;;;;;;;;;2205787;58;2890;-23
2024/02/01 10:17:05;;;;;;;;;;;;;;;;;;2206391;58;1843;-22
2024/02/01 10:19:37;;;;;;;;;;;;;;;;;;2207104;58;1936;-22
2024/02/01 10:22:08;;;;;;;;;;;;;;;;;;2203173;59;2204;-22
2024/02/01 10:24:51;;;;;;;;;;;;;;;;;;2207095;59;2125;-24
2024/02/01 10:27:23;;;;;;;;;;;;;;;;;;2204140;58;1730;-24
2024/02/01 10:30:09;;;;;;;;;;;;;;;;;;2205509;59;2924;-24
2024/02/01 10:32:46;;;;;;;;;;;;;;;;;;2205988;59;1796;-24
2024/02/01 10:35:18;;;;;;;;;;;;;;;;;;2205392;59;2022;-24
2024/02/01 10:37:51;;;;;;;;;;;;;;;;;;2206533;59;2704;-24
2024/02/01 10:40:29;;;;;;;;;;;;;;;;;;2205198;59;1940;-24
2024/02/01 10:43:00;;;;;;;;;;;;;;;;;;2205154;59;2178;-24
2024/02/01 10:45:32;;;;;;;;;;;;;;;;;;2208174;59;1281;-24
2024/02/01 10:48:10;;;;;;;;;;;;;;;;;;2204018;58;2299;-24
2024/02/01 10:50:40;;;;;;;;;;;;;;;;;;2207384;58;1194;-24
2024/02/01 10:53:15;;;;;;;;;;;;;;;;;;2206455;59;2089;-24
2024/02/01 10:55:48;;;;;;;;;;;;;;;;;;2206911;58;2293;-26
2024/02/01 10:58:19;;;;;;;;;;;;;;;;;;2203683;59;2280;-24
2024/02/01 11:00:49;;;;;;;;;;;;;;;;;;2204861;59;1606;-24
2024/02/01 11:03:24;;;;;;;;;;;;;;;;;;2207649;59;1659;-24
2024/02/01 11:05:56;;;;;;;;;;;;;;;;;;2206895;58;2135;-24
2024/02/01 11:08:33;;;;;;;;;;;;;;;;;;2207627;59;1791;-25
2024/02/01 11:11:15;;;;;;;;;;;;;;;;;;2206014;58;2206;-25
2024/02/01 11:14:14;;;;;;;;;;;;;;;;;;2200948;58;2131;-24
2024/02/01 11:16:49;;;;;;;;;;;;;;;;;;2203805;59;1940;-25
2024/02/01 11:19:25;;;;;;;;;;;;;;;;;;2206051;58;2663;-24
2024/02/01 11:21:57;;;;;;;;;;;;;;;;;;2207152;59;1930;-24
2024/02/01 11:24:29;;;;;;;;;;;;;;;;;;2203703;59;1706;-24
2024/02/01 11:27:07;;;;;;;;;;;;;;;;;;2206668;58;2350;-24
2024/02/01 11:29:39;;;;;;;;;;;;;;;;;;2204519;59;1488;-24
2024/02/01 11:32:13;;;;;;;;;;;;;;;;;;2202774;59;2379;-25
2024/02/01 11:34:49;;;;;;;;;;;;;;;;;;2207413;59;1972;-24
2024/02/01 11:37:20;;;;;;;;;;;;;;;;;;2204162;59;2145;-23
2024/02/01 11:39:52;;;;;;;;;;;;;;;;;;2207939;59;1960;-23
2024/02/01 11:42:24;;;;;;;;;;;;;;;;;;2207824;59;2093;-23
2024/02/01 11:44:59;;;;;;;;;;;;;;;;;;2207110;58;2085;-23
2024/02/01 11:47:31;;;;;;;;;;;;;;;;;;2207034;59;1630;-23
2024/02/01 11:50:02;;;;;;;;;;;;;;;;;;2206284;59;1936;-23
2024/02/01 11:52:43;;;;;;;;;;;;;;;;;;2205439;59;1439;-23
2024/02/01 11:55:15;;;;;;;;;;;;;;;;;;2204210;67;1384;-23
2024/02/01 11:57:47;;;;;;;;;;;;;;;;;;2204327;59;2165;-22
2024/02/01 12:00:20;;;;;;;;;;;;;;;;;;2207574;59;1933;-23
2024/02/01 12:02:50;;;;;;;;;;;;;;;;;;2203623;59;1660;-23
2024/02/01 12:05:23;;;;;;;;;;;;;;;;;;2205605;59;1830;-23
2024/02/01 12:07:53;;;;;;;;;;;;;;;;;;2206759;59;1462;-22
2024/02/01 12:10:24;;;;;;;;;;;;;;;;;;2206823;59;1466;-23
2024/02/01 12:12:54;;;;;;;;;;;;;;;;;;2206648;59;2005;-23
2024/02/01 12:15:25;;;;;;;;;;;;;;;;;;2208021;58;1849;-23
2024/02/01 12:17:58;;;;;;;;;;;;;;;;;;2203639;59;1747;-23
2024/02/01 12:20:31;;;;;;;;;;;;;;;;;;2208205;59;1937;-23
2024/02/01 12:23:02;;;;;;;;;;;;;;;;;;2207482;59;2301;-23
2024/02/01 12:25:32;;;;;;;;;;;;;;;;;;2206639;58;1898;-23
2024/02/01 12:28:03;;;;;;;;;;;;;;;;;;2206140;59;3916;-23
2024/02/01 12:30:36;;;;;;;;;;;;;;;;;;2204615;67;1192;-23
2024/02/01 12:33:12;;;;;;;;;;;;;;;;;;2202927;59;2084;-23
2024/02/01 12:35:42;;;;;;;;;;;;;;;;;;2208135;59;1587;-23
2024/02/01 12:38:14;;;;;;;;;;;;;;;;;;2206721;66;1546;-23
2024/02/01 12:40:44;;;;;;;;;;;;;;;;;;2207891;59;2306;-23
2024/02/01 12:43:15;;;;;;;;;;;;;;;;;;2205322;59;1713;-23
2024/02/01 12:45:46;;;;;;;;;;;;;;;;;;2208219;58;2273;-23
2024/02/01 12:48:16;;;;;;;;;;;;;;;;;;2204825;59;1551;-23
2024/02/01 12:50:47;;;;;;;;;;;;;;;;;;2207146;67;1600;-23
2024/02/01 12:53:18;;;;;;;;;;;;;;;;;;2206377;59;1840;-23
2024/02/01 12:55:48;;;;;;;;;;;;;;;;;;2206733;59;1530;-23
2024/02/01 12:58:18;;;;;;;;;;;;;;;;;;2206665;59;2127;-23
2024/02/01 13:00:49;;;;;;;;;;;;;;;;;;2206760;58;2171;-23
2024/02/01 13:03:19;;;;;;;;;;;;;;;;;;2206944;58;2379;-23
2024/02/01 13:05:49;;;;;;;;;;;;;;;;;;2206693;58;2208;-23
2024/02/01 13:08:19;;;;;;;;;;;;;;;;;;2206363;58;2277;-23
2024/02/01 13:10:50;;;;;;;;;;;;;;;;;;2205753;59;3190;-23
2024/02/01 13:13:20;;;;;;;;;;;;;;;;;;2202835;59;2692;-23
2024/02/01 13:15:51;;;;;;;;;;;;;;;;;;2203764;59;2485;-23
2024/02/01 13:18:21;;;;;;;;;;;;;;;;;;2208002;58;2361;-23
2024/02/01 13:20:52;;;;;;;;;;;;;;;;;;2206355;59;2374;-22
2024/02/01 13:23:23;;;;;;;;;;;;;;;;;;2204076;59;3154;-22
2024/02/01 13:25:54;;;;;;;;;;;;;;;;;;2203372;59;1934;-22
2024/02/01 13:28:24;;;;;;;;;;;;;;;;;;2207260;59;1635;-22
2024/02/01 13:30:57;;;;;;;;;;;;;;;;;;2205023;58;2169;-22
2024/02/01 13:33:27;;;;;;;;;;;;;;;;;;2207594;58;2046;-23
2024/02/01 13:35:57;;;;;;;;;;;;;;;;;;2203397;59;2809;-22
2024/02/01 13:38:27;;;;;;;;;;;;;;;;;;2208101;58;1941;-23
2024/02/01 13:40:59;;;;;;;;;;;;;;;;;;2200593;59;2301;-22
2024/02/01 13:43:29;;;;;;;;;;;;;;;;;;2200965;59;2607;-23
2024/02/01 13:45:59;;;;;;;;;;;;;;;;;;2200064;59;2381;-23
2024/02/01 13:48:30;;;;;;;;;;;;;;;;;;2206192;58;1924;-23
2024/02/01 13:51:03;;;;;;;;;;;;;;;;;;2203626;59;2567;-22
2024/02/01 13:53:34;;;;;;;;;;;;;;;;;;2205619;59;3566;-23
2024/02/01 13:56:05;;;;;;;;;;;;;;;;;;2199196;59;1991;-22
2024/02/01 13:58:35;;;;;;;;;;;;;;;;;;2206404;59;1990;-22
2024/02/01 14:01:06;;;;;;;;;;;;;;;;;;2200964;59;2740;-22
2024/02/01 14:03:36;;;;;;;;;;;;;;;;;;2201457;59;3982;-23
2024/02/01 14:06:06;;;;;;;;;;;;;;;;;;2206229;58;2228;-23
2024/02/01 14:08:37;;;;;;;;;;;;;;;;;;2205998;59;2250;-22
2024/02/01 14:11:08;;;;;;;;;;;;;;;;;;2198678;59;3545;-22
2024/02/01 14:13:38;;;;;;;;;;;;;;;;;;2199216;59;2654;-22
2024/02/01 14:16:09;;;;;;;;;;;;;;;;;;2201677;59;2827;-22
2024/02/01 14:18:39;;;;;;;;;;;;;;;;;;2203010;58;3860;-22
2024/02/01 14:21:10;;;;;;;;;;;;;;;;;;2199487;59;3500;-23
2024/02/01 14:23:40;;;;;;;;;;;;;;;;;;2201047;67;3332;-22
2024/02/01 14:26:10;;;;;;;;;;;;;;;;;;2204597;59;3369;-22
2024/02/01 14:28:40;;;;;;;;;;;;;;;;;;2205398;59;2175;-23
2024/02/01 14:31:10;;;;;;;;;;;;;;;;;;2202112;59;2514;-23
2024/02/01 14:33:41;;;;;;;;;;;;;;;;;;2204298;66;1983;-23
2024/02/01 14:36:11;;;;;;;;;;;;;;;;;;2202435;59;2354;-22
2024/02/01 14:38:41;;;;;;;;;;;;;;;;;;2201817;59;2714;-22
2024/02/01 14:41:13;;;;;;;;;;;;;;;;;;2203515;66;2058;-22
2024/02/01 14:43:43;;;;;;;;;;;;;;;;;;2203789;59;2356;-23
2024/02/01 14:46:13;;;;;;;;;;;;;;;;;;2203795;66;1948;-22
2024/02/01 14:48:44;;;;;;;;;;;;;;;;;;2205023;59;2661;-22
2024/02/01 14:51:14;;;;;;;;;;;;;;;;;;2200167;59;2710;-22
2024/02/01 14:53:44;;;;;;;;;;;;;;;;;;2204678;59;1774;-22
2024/02/01 14:56:14;;;;;;;;;;;;;;;;;;2203456;59;3239;-22
2024/02/01 14:58:44;;;;;;;;;;;;;;;;;;2200494;59;2215;-22
2024/02/01 15:01:19;;;;;;;;;;;;;;;;;;2204628;66;1773;-22
2024/02/01 15:03:53;;;;;;;;;;;;;;;;;;2203131;59;2161;-22
2024/02/01 15:06:24;;;;;;;;;;;;;;;;;;2203826;59;3190;-22
2024/02/01 15:09:03;;;;;;;;;;;;;;;;;;2204378;59;2253;-22
2024/02/01 15:11:33;;;;;;;;;;;;;;;;;;2203314;59;3593;-22
2024/02/01 15:14:04;;;;;;;;;;;;;;;;;;2198525;59;2343;-22
2024/02/01 15:16:34;;;;;;;;;;;;;;;;;;2205233;59;2344;-22
2024/02/01 15:19:08;;;;;;;;;;;;;;;;;;2201243;59;2682;-22
2024/02/01 15:21:39;;;;;;;;;;;;;;;;;;2204078;59;2064;-22
2024/02/01 15:24:13;;;;;;;;;;;;;;;;;;2201183;58;2378;-22
2024/02/01 15:26:44;;;;;;;;;;;;;;;;;;2196622;59;2542;-22
2024/02/01 15:29:16;;;;;;;;;;;;;;;;;;2195683;59;2266;-22
2024/02/01 15:31:46;;;;;;;;;;;;;;;;;;2190304;59;2401;-22
2024/02/01 15:34:18;;;;;;;;;;;;;;;;;;2194710;59;2391;-22
2024/02/01 15:36:48;;;;;;;;;;;;;;;;;;2198519;58;2403;-22
2024/02/01 15:39:18;;;;;;;;;;;;;;;;;;2195534;59;2704;-22
2024/02/01 15:41:49;;;;;;;;;;;;;;;;;;2202048;59;2304;-22
2024/02/01 15:44:20;;;;;;;;;;;;;;;;;;2197800;59;2486;-22
2024/02/01 15:46:50;;;;;;;;;;;;;;;;;;2199767;59;2551;-22
2024/02/01 15:49:21;;;;;;;;;;;;;;;;;;2202433;59;4381;-22
2024/02/01 15:51:51;;;;;;;;;;;;;;;;;;2191211;59;3201;-22
2024/02/01 15:54:22;;;;;;;;;;;;;;;;;;2204288;59;3620;-22
2024/02/01 15:56:53;;;;;;;;;;;;;;;;;;2206743;59;3560;-22
2024/02/01 15:59:24;;;;;;;;;;;;;;;;;;2201588;59;2061;-23
2024/02/01 16:01:54;;;;;;;;;;;;;;;;;;2201608;67;2114;-22
2024/02/01 16:04:24;;;;;;;;;;;;;;;;;;2206244;66;2555;-22
2024/02/01 16:06:54;;;;;;;;;;;;;;;;;;2208173;59;1754;-23
2024/02/01 16:09:25;;;;;;;;;;;;;;;;;;2207264;66;2531;-22
2024/02/01 16:11:57;;;;;;;;;;;;;;;;;;2204351;67;1791;-22
2024/02/01 16:14:28;;;;;;;;;;;;;;;;;;2207472;59;1859;-22
2024/02/01 16:17:00;;;;;;;;;;;;;;;;;;2207779;66;1416;-22
2024/02/01 16:19:36;;;;;;;;;;;;;;;;;;2200099;59;3008;-23
2024/02/01 16:22:09;;;;;;;;;;;;;;;;;;2204279;59;2390;-22
2024/02/01 16:24:53;;;;;;;;;;;;;;;;;;2207630;59;2588;-23
2024/02/01 16:27:49;;;;;;;;;;;;;;;;;;2204614;59;2543;-22
2024/02/01 16:30:19;;;;;;;;;;;;;;;;;;2207216;59;2448;-22
2024/02/01 16:32:49;;;;;;;;;;;;;;;;;;2203848;59;2108;-22
2024/02/01 16:35:38;;;;;;;;;;;;;;;;;;2206998;59;1965;-22
2024/02/01 16:38:15;;;;;;;;;;;;;;;;;;2208068;59;1963;-22
2024/02/01 16:40:46;;;;;;;;;;;;;;;;;;2204268;67;2004;-22
2024/02/01 16:43:28;;;;;;;;;;;;;;;;;;2203680;59;2540;-23
2024/02/01 16:45:58;;;;;;;;;;;;;;;;;;2208259;66;1974;-22
2024/02/01 16:48:29;;;;;;;;;;;;;;;;;;2206817;59;2105;-23
2024/02/01 16:51:00;;;;;;;;;;;;;;;;;;2204028;59;2788;-23
2024/02/01 16:53:40;;;;;;;;;;;;;;;;;;2203606;59;2010;-22
2024/02/01 16:56:11;;;;;;;;;;;;;;;;;;2207353;59;2566;-23
2024/02/01 16:58:44;;;;;;;;;;;;;;;;;;2208146;59;2284;-22
2024/02/01 17:01:30;;;;;;;;;;;;;;;;;;2203567;59;1910;-22
2024/02/01 17:04:01;;;;;;;;;;;;;;;;;;2206910;66;2236;-22
2024/02/01 17:06:35;;;;;;;;;;;;;;;;;;2203570;59;1829;-23
2024/02/01 17:09:06;;;;;;;;;;;;;;;;;;2206879;59;1659;-23
2024/02/01 17:11:36;;;;;;;;;;;;;;;;;;2207635;59;1795;-23
2024/02/01 17:14:14;;;;;;;;;;;;;;;;;;2207367;59;1716;-23
2024/02/01 17:16:52;;;;;;;;;;;;;;;;;;2207928;59;1757;-24
2024/02/01 17:19:23;;;;;;;;;;;;;;;;;;2207922;58;2151;-23
2024/02/01 17:21:53;;;;;;;;;;;;;;;;;;2204735;59;1969;-23
2024/02/01 17:24:24;;;;;;;;;;;;;;;;;;2207284;59;2064;-23
2024/02/01 17:26:54;;;;;;;;;;;;;;;;;;2208023;58;1573;-23
2024/02/01 17:29:25;;;;;;;;;;;;;;;;;;2203088;66;1732;-23
2024/02/01 17:31:57;;;;;;;;;;;;;;;;;;2205487;59;1568;-23
2024/02/01 17:34:38;;;;;;;;;;;;;;;;;;2206786;59;1720;-22
2024/02/01 17:37:27;;;;;;;;;;;;;;;;;;2208368;58;1596;-22
2024/02/01 17:39:57;;;;;;;;;;;;;;;;;;2204611;67;1944;-22
2024/02/01 17:42:28;;;;;;;;;;;;;;;;;;2207881;66;1468;-22
2024/02/01 17:44:58;;;;;;;;;;;;;;;;;;2208011;66;1803;-22
2024/02/01 17:47:28;;;;;;;;;;;;;;;;;;2206842;66;1483;-22
2024/02/01 17:50:00;;;;;;;;;;;;;;;;;;2204805;59;1631;-22
2024/02/01 17:52:48;;;;;;;;;;;;;;;;;;2204150;59;1678;-22
2024/02/01 17:55:23;;;;;;;;;;;;;;;;;;2206649;59;2479;-22
2024/02/01 17:57:55;;;;;;;;;;;;;;;;;;2208785;59;1719;-23
2024/02/01 18:00:26;;;;;;;;;;;;;;;;;;2207366;66;2000;-22
2024/02/01 18:02:56;;;;;;;;;;;;;;;;;;2208187;66;1562;-22
2024/02/01 18:05:27;;;;;;;;;;;;;;;;;;2207139;66;1807;-22
2024/02/01 18:07:57;;;;;;;;;;;;;;;;;;2208603;59;1535;-22
2024/02/01 18:10:33;;;;;;;;;;;;;;;;;;2207182;66;1551;-22
2024/02/01 18:13:05;;;;;;;;;;;;;;;;;;2208018;66;1905;-22
2024/02/01 18:15:39;;;;;;;;;;;;;;;;;;2207839;59;1526;-22
2024/02/01 18:18:12;;;;;;;;;;;;;;;;;;2208993;59;1689;-22
2024/02/01 18:20:42;;;;;;;;;;;;;;;;;;2208235;59;2004;-22